sensor_id;sensor_type;location;lat;lon;timestamp;P1;durP1;ratioP1;P2;durP2;ratioP2
80247;SDS011;69560;52.206;21.018;2023-05-10T00:01:41;16.00;;;10.10;;
80247;SDS011;69560;52.206;21.018;2023-05-10T00:04:08;15.30;;;9.80;;
80247;SDS011;69560;52.206;21.018;2023-05-10T00:06:34;12.80;;;9.20;;
80247;SDS011;69560;52.206;21.018;2023-05-10T00:09:01;15.70;;;9.80;;
80247;SDS011;69560;52.206;21.018;2023-05-10T00:11:29;13.50;;;9.30;;
80247;SDS011;69560;52.206;21.018;2023-05-10T00:13:55;16.70;;;10.10;;
80247;SDS011;69560;52.206;21.018;2023-05-10T00:16:22;15.50;;;9.60;;
80247;SDS011;69560;52.206;21.018;2023-05-10T00:18:49;14.40;;;9.40;;
80247;SDS011;69560;52.206;21.018;2023-05-10T00:21:15;14.70;;;9.20;;
80247;SDS011;69560;52.206;21.018;2023-05-10T00:23:42;16.60;;;9.30;;
80247;SDS011;69560;52.206;21.018;2023-05-10T00:26:08;13.70;;;9.20;;
80247;SDS011;69560;52.206;21.018;2023-05-10T00:28:35;13.70;;;9.10;;
80247;SDS011;69560;52.206;21.018;2023-05-10T00:31:02;12.80;;;9.00;;
80247;SDS011;69560;52.206;21.018;2023-05-10T00:33:29;14.30;;;9.50;;
80247;SDS011;69560;52.206;21.018;2023-05-10T00:35:55;13.20;;;8.30;;
80247;SDS011;69560;52.206;21.018;2023-05-10T00:38:22;15.60;;;9.10;;
80247;SDS011;69560;52.206;21.018;2023-05-10T00:40:49;13.40;;;8.20;;
80247;SDS011;69560;52.206;21.018;2023-05-10T00:43:16;12.40;;;8.50;;
80247;SDS011;69560;52.206;21.018;2023-05-10T00:45:42;11.20;;;8.10;;
80247;SDS011;69560;52.206;21.018;2023-05-10T00:48:10;12.80;;;8.80;;
80247;SDS011;69560;52.206;21.018;2023-05-10T00:50:36;15.20;;;8.20;;
80247;SDS011;69560;52.206;21.018;2023-05-10T00:53:04;10.80;;;8.30;;
80247;SDS011;69560;52.206;21.018;2023-05-10T00:55:30;10.80;;;8.10;;
80247;SDS011;69560;52.206;21.018;2023-05-10T00:57:57;16.80;;;8.90;;
80247;SDS011;69560;52.206;21.018;2023-05-10T01:00:24;11.30;;;7.90;;
80247;SDS011;69560;52.206;21.018;2023-05-10T01:02:52;11.60;;;8.20;;
80247;SDS011;69560;52.206;21.018;2023-05-10T01:05:20;11.70;;;7.80;;
80247;SDS011;69560;52.206;21.018;2023-05-10T01:07:46;10.50;;;7.80;;
80247;SDS011;69560;52.206;21.018;2023-05-10T01:10:14;12.40;;;7.90;;
80247;SDS011;69560;52.206;21.018;2023-05-10T01:12:41;12.30;;;7.90;;
80247;SDS011;69560;52.206;21.018;2023-05-10T01:15:10;10.30;;;7.40;;
80247;SDS011;69560;52.206;21.018;2023-05-10T01:17:38;12.70;;;7.60;;
80247;SDS011;69560;52.206;21.018;2023-05-10T01:20:15;11.40;;;7.30;;
80247;SDS011;69560;52.206;21.018;2023-05-10T01:22:48;9.30;;;7.40;;
80247;SDS011;69560;52.206;21.018;2023-05-10T01:28:16;11.60;;;7.70;;
80247;SDS011;69560;52.206;21.018;2023-05-10T01:33:59;13.00;;;7.80;;
80247;SDS011;69560;52.206;21.018;2023-05-10T01:36:35;12.30;;;8.00;;
80247;SDS011;69560;52.206;21.018;2023-05-10T01:39:11;11.50;;;7.40;;
80247;SDS011;69560;52.206;21.018;2023-05-10T01:41:54;11.50;;;7.30;;
80247;SDS011;69560;52.206;21.018;2023-05-10T01:44:33;8.90;;;7.10;;
80247;SDS011;69560;52.206;21.018;2023-05-10T01:49:43;10.20;;;7.10;;
80247;SDS011;69560;52.206;21.018;2023-05-10T01:52:15;9.00;;;6.40;;
80247;SDS011;69560;52.206;21.018;2023-05-10T01:55:00;11.60;;;7.10;;
80247;SDS011;69560;52.206;21.018;2023-05-10T01:57:34;9.00;;;6.90;;
80247;SDS011;69560;52.206;21.018;2023-05-10T02:00:03;9.90;;;7.00;;
80247;SDS011;69560;52.206;21.018;2023-05-10T02:02:33;10.30;;;6.80;;
80247;SDS011;69560;52.206;21.018;2023-05-10T02:05:10;9.40;;;6.70;;
80247;SDS011;69560;52.206;21.018;2023-05-10T02:07:41;12.40;;;7.10;;
80247;SDS011;69560;52.206;21.018;2023-05-10T02:10:10;10.00;;;6.50;;
80247;SDS011;69560;52.206;21.018;2023-05-10T02:12:42;9.60;;;7.10;;
80247;SDS011;69560;52.206;21.018;2023-05-10T02:15:12;15.30;;;6.50;;
80247;SDS011;69560;52.206;21.018;2023-05-10T02:17:41;9.10;;;6.80;;
80247;SDS011;69560;52.206;21.018;2023-05-10T02:20:09;7.70;;;6.20;;
80247;SDS011;69560;52.206;21.018;2023-05-10T02:22:38;9.40;;;6.30;;
80247;SDS011;69560;52.206;21.018;2023-05-10T02:25:09;9.00;;;7.00;;
80247;SDS011;69560;52.206;21.018;2023-05-10T02:27:39;10.10;;;6.50;;
80247;SDS011;69560;52.206;21.018;2023-05-10T02:30:09;11.30;;;6.80;;
80247;SDS011;69560;52.206;21.018;2023-05-10T02:32:37;9.40;;;6.40;;
80247;SDS011;69560;52.206;21.018;2023-05-10T02:35:05;8.90;;;6.30;;
80247;SDS011;69560;52.206;21.018;2023-05-10T02:37:33;9.90;;;6.30;;
80247;SDS011;69560;52.206;21.018;2023-05-10T02:40:02;13.10;;;6.70;;
80247;SDS011;69560;52.206;21.018;2023-05-10T02:42:31;9.00;;;6.10;;
80247;SDS011;69560;52.206;21.018;2023-05-10T02:45:01;8.90;;;5.60;;
80247;SDS011;69560;52.206;21.018;2023-05-10T02:47:31;9.30;;;6.10;;
80247;SDS011;69560;52.206;21.018;2023-05-10T02:50:01;9.70;;;6.90;;
80247;SDS011;69560;52.206;21.018;2023-05-10T02:52:36;11.80;;;7.10;;
80247;SDS011;69560;52.206;21.018;2023-05-10T02:55:06;12.10;;;6.40;;
80247;SDS011;69560;52.206;21.018;2023-05-10T02:57:38;12.90;;;6.20;;
80247;SDS011;69560;52.206;21.018;2023-05-10T03:00:09;10.90;;;6.40;;
80247;SDS011;69560;52.206;21.018;2023-05-10T03:02:39;12.10;;;6.50;;
80247;SDS011;69560;52.206;21.018;2023-05-10T03:05:06;11.10;;;6.80;;
80247;SDS011;69560;52.206;21.018;2023-05-10T03:07:33;12.20;;;6.70;;
80247;SDS011;69560;52.206;21.018;2023-05-10T03:10:00;9.40;;;6.70;;
80247;SDS011;69560;52.206;21.018;2023-05-10T03:17:49;12.40;;;7.90;;
80247;SDS011;69560;52.206;21.018;2023-05-10T03:20:25;9.50;;;7.20;;
80247;SDS011;69560;52.206;21.018;2023-05-10T03:22:59;12.90;;;7.20;;
80247;SDS011;69560;52.206;21.018;2023-05-10T03:25:31;8.40;;;6.20;;
80247;SDS011;69560;52.206;21.018;2023-05-10T03:27:58;11.40;;;7.10;;
80247;SDS011;69560;52.206;21.018;2023-05-10T03:30:28;12.00;;;7.50;;
80247;SDS011;69560;52.206;21.018;2023-05-10T03:32:56;8.20;;;6.80;;
80247;SDS011;69560;52.206;21.018;2023-05-10T03:35:23;10.20;;;6.60;;
80247;SDS011;69560;52.206;21.018;2023-05-10T03:37:50;12.00;;;6.70;;
80247;SDS011;69560;52.206;21.018;2023-05-10T03:40:16;9.80;;;7.90;;
80247;SDS011;69560;52.206;21.018;2023-05-10T03:42:43;9.30;;;7.40;;
80247;SDS011;69560;52.206;21.018;2023-05-10T03:45:10;8.20;;;5.90;;
80247;SDS011;69560;52.206;21.018;2023-05-10T03:47:37;14.10;;;7.10;;
80247;SDS011;69560;52.206;21.018;2023-05-10T03:50:03;9.00;;;6.20;;
80247;SDS011;69560;52.206;21.018;2023-05-10T03:52:33;9.20;;;6.60;;
80247;SDS011;69560;52.206;21.018;2023-05-10T03:55:00;12.00;;;6.80;;
80247;SDS011;69560;52.206;21.018;2023-05-10T03:57:26;8.50;;;6.30;;
80247;SDS011;69560;52.206;21.018;2023-05-10T03:59:53;9.70;;;6.50;;
80247;SDS011;69560;52.206;21.018;2023-05-10T04:02:19;10.90;;;7.10;;
80247;SDS011;69560;52.206;21.018;2023-05-10T04:04:46;10.20;;;6.70;;
80247;SDS011;69560;52.206;21.018;2023-05-10T04:07:13;11.20;;;7.00;;
80247;SDS011;69560;52.206;21.018;2023-05-10T04:09:40;11.30;;;6.70;;
80247;SDS011;69560;52.206;21.018;2023-05-10T04:12:07;9.80;;;7.20;;
80247;SDS011;69560;52.206;21.018;2023-05-10T04:14:33;9.10;;;6.60;;
80247;SDS011;69560;52.206;21.018;2023-05-10T04:17:00;11.10;;;6.80;;
80247;SDS011;69560;52.206;21.018;2023-05-10T04:19:30;10.60;;;6.60;;
80247;SDS011;69560;52.206;21.018;2023-05-10T04:21:57;11.40;;;6.40;;
80247;SDS011;69560;52.206;21.018;2023-05-10T04:24:24;13.90;;;6.30;;
80247;SDS011;69560;52.206;21.018;2023-05-10T04:26:51;9.50;;;6.30;;
80247;SDS011;69560;52.206;21.018;2023-05-10T04:29:18;13.00;;;6.20;;
80247;SDS011;69560;52.206;21.018;2023-05-10T04:31:45;12.90;;;6.50;;
80247;SDS011;69560;52.206;21.018;2023-05-10T04:34:11;13.50;;;6.90;;
80247;SDS011;69560;52.206;21.018;2023-05-10T04:36:38;13.00;;;6.30;;
80247;SDS011;69560;52.206;21.018;2023-05-10T04:39:05;9.80;;;6.10;;
80247;SDS011;69560;52.206;21.018;2023-05-10T04:41:31;9.90;;;6.40;;
80247;SDS011;69560;52.206;21.018;2023-05-10T04:43:58;10.80;;;6.70;;
80247;SDS011;69560;52.206;21.018;2023-05-10T04:46:25;11.20;;;6.90;;
80247;SDS011;69560;52.206;21.018;2023-05-10T04:48:51;9.10;;;6.50;;
80247;SDS011;69560;52.206;21.018;2023-05-10T04:51:18;10.30;;;6.10;;
80247;SDS011;69560;52.206;21.018;2023-05-10T04:53:45;9.70;;;6.30;;
80247;SDS011;69560;52.206;21.018;2023-05-10T04:56:12;9.50;;;6.10;;
80247;SDS011;69560;52.206;21.018;2023-05-10T04:58:38;11.00;;;6.40;;
80247;SDS011;69560;52.206;21.018;2023-05-10T05:01:06;10.60;;;6.00;;
80247;SDS011;69560;52.206;21.018;2023-05-10T05:03:34;10.80;;;6.40;;
80247;SDS011;69560;52.206;21.018;2023-05-10T05:06:00;10.70;;;5.60;;
80247;SDS011;69560;52.206;21.018;2023-05-10T05:08:27;10.50;;;5.90;;
80247;SDS011;69560;52.206;21.018;2023-05-10T05:10:54;14.60;;;5.80;;
80247;SDS011;69560;52.206;21.018;2023-05-10T05:13:21;9.00;;;6.30;;
80247;SDS011;69560;52.206;21.018;2023-05-10T05:15:47;10.20;;;5.70;;
80247;SDS011;69560;52.206;21.018;2023-05-10T05:18:14;11.40;;;5.70;;
80247;SDS011;69560;52.206;21.018;2023-05-10T05:20:41;9.30;;;5.40;;
80247;SDS011;69560;52.206;21.018;2023-05-10T05:23:07;9.10;;;5.90;;
80247;SDS011;69560;52.206;21.018;2023-05-10T05:25:34;11.30;;;5.90;;
80247;SDS011;69560;52.206;21.018;2023-05-10T05:28:01;9.80;;;5.50;;
80247;SDS011;69560;52.206;21.018;2023-05-10T05:30:28;8.00;;;5.60;;
80247;SDS011;69560;52.206;21.018;2023-05-10T05:32:55;11.80;;;5.50;;
80247;SDS011;69560;52.206;21.018;2023-05-10T05:35:21;6.50;;;5.20;;
80247;SDS011;69560;52.206;21.018;2023-05-10T05:37:48;10.60;;;5.50;;
80247;SDS011;69560;52.206;21.018;2023-05-10T05:40:15;9.70;;;4.90;;
80247;SDS011;69560;52.206;21.018;2023-05-10T05:42:41;8.00;;;5.50;;
80247;SDS011;69560;52.206;21.018;2023-05-10T05:45:08;7.00;;;5.30;;
80247;SDS011;69560;52.206;21.018;2023-05-10T05:50:06;7.90;;;5.00;;
80247;SDS011;69560;52.206;21.018;2023-05-10T05:52:33;8.90;;;5.40;;
80247;SDS011;69560;52.206;21.018;2023-05-10T05:55:02;11.60;;;5.00;;
80247;SDS011;69560;52.206;21.018;2023-05-10T05:57:29;9.30;;;5.10;;
80247;SDS011;69560;52.206;21.018;2023-05-10T05:59:56;8.00;;;5.40;;
80247;SDS011;69560;52.206;21.018;2023-05-10T06:02:23;9.20;;;5.30;;
80247;SDS011;69560;52.206;21.018;2023-05-10T06:04:50;9.60;;;5.00;;
80247;SDS011;69560;52.206;21.018;2023-05-10T06:07:16;10.20;;;5.80;;
80247;SDS011;69560;52.206;21.018;2023-05-10T06:09:43;10.30;;;5.40;;
80247;SDS011;69560;52.206;21.018;2023-05-10T06:12:10;8.80;;;5.30;;
80247;SDS011;69560;52.206;21.018;2023-05-10T06:14:37;13.50;;;6.30;;
80247;SDS011;69560;52.206;21.018;2023-05-10T06:17:04;7.00;;;5.10;;
80247;SDS011;69560;52.206;21.018;2023-05-10T06:19:31;12.90;;;6.10;;
80247;SDS011;69560;52.206;21.018;2023-05-10T06:21:58;13.20;;;4.90;;
80247;SDS011;69560;52.206;21.018;2023-05-10T06:24:24;9.50;;;5.50;;
80247;SDS011;69560;52.206;21.018;2023-05-10T06:26:51;14.80;;;5.50;;
80247;SDS011;69560;52.206;21.018;2023-05-10T06:29:18;9.80;;;4.80;;
80247;SDS011;69560;52.206;21.018;2023-05-10T06:31:44;9.10;;;4.90;;
80247;SDS011;69560;52.206;21.018;2023-05-10T06:34:11;6.80;;;4.90;;
80247;SDS011;69560;52.206;21.018;2023-05-10T06:36:38;9.90;;;5.20;;
80247;SDS011;69560;52.206;21.018;2023-05-10T06:39:05;6.60;;;4.70;;
80247;SDS011;69560;52.206;21.018;2023-05-10T06:41:32;10.30;;;4.60;;
80247;SDS011;69560;52.206;21.018;2023-05-10T06:43:59;7.40;;;4.30;;
80247;SDS011;69560;52.206;21.018;2023-05-10T06:46:25;8.60;;;4.70;;
80247;SDS011;69560;52.206;21.018;2023-05-10T06:48:52;8.50;;;3.90;;
80247;SDS011;69560;52.206;21.018;2023-05-10T06:51:19;9.00;;;4.30;;
80247;SDS011;69560;52.206;21.018;2023-05-10T06:53:47;11.60;;;4.40;;
80247;SDS011;69560;52.206;21.018;2023-05-10T06:56:13;5.00;;;4.10;;
80247;SDS011;69560;52.206;21.018;2023-05-10T06:58:40;4.30;;;3.90;;
80247;SDS011;69560;52.206;21.018;2023-05-10T07:01:07;4.80;;;3.50;;
80247;SDS011;69560;52.206;21.018;2023-05-10T07:03:33;6.20;;;3.60;;
80247;SDS011;69560;52.206;21.018;2023-05-10T07:06:03;9.60;;;3.60;;
80247;SDS011;69560;52.206;21.018;2023-05-10T07:08:31;9.00;;;3.70;;
80247;SDS011;69560;52.206;21.018;2023-05-10T07:11:04;5.20;;;3.50;;
80247;SDS011;69560;52.206;21.018;2023-05-10T07:13:33;6.80;;;4.10;;
80247;SDS011;69560;52.206;21.018;2023-05-10T07:16:02;12.30;;;3.50;;
80247;SDS011;69560;52.206;21.018;2023-05-10T07:18:29;8.00;;;3.90;;
80247;SDS011;69560;52.206;21.018;2023-05-10T07:20:56;6.50;;;3.90;;
80247;SDS011;69560;52.206;21.018;2023-05-10T07:23:23;19.50;;;4.10;;
80247;SDS011;69560;52.206;21.018;2023-05-10T07:25:50;5.60;;;3.20;;
80247;SDS011;69560;52.206;21.018;2023-05-10T07:28:20;6.40;;;3.20;;
80247;SDS011;69560;52.206;21.018;2023-05-10T07:30:47;3.90;;;3.20;;
80247;SDS011;69560;52.206;21.018;2023-05-10T07:33:14;6.50;;;2.80;;
80247;SDS011;69560;52.206;21.018;2023-05-10T07:35:42;9.20;;;3.60;;
80247;SDS011;69560;52.206;21.018;2023-05-10T07:38:08;8.20;;;3.00;;
80247;SDS011;69560;52.206;21.018;2023-05-10T07:40:37;4.30;;;2.70;;
80247;SDS011;69560;52.206;21.018;2023-05-10T07:43:04;9.50;;;3.10;;
80247;SDS011;69560;52.206;21.018;2023-05-10T07:45:31;4.60;;;3.30;;
80247;SDS011;69560;52.206;21.018;2023-05-10T07:47:57;4.70;;;2.30;;
80247;SDS011;69560;52.206;21.018;2023-05-10T07:50:24;4.40;;;2.60;;
80247;SDS011;69560;52.206;21.018;2023-05-10T07:52:51;5.50;;;3.20;;
80247;SDS011;69560;52.206;21.018;2023-05-10T07:55:18;3.80;;;2.80;;
80247;SDS011;69560;52.206;21.018;2023-05-10T07:57:45;9.10;;;2.90;;
80247;SDS011;69560;52.206;21.018;2023-05-10T08:00:12;4.70;;;2.70;;
80247;SDS011;69560;52.206;21.018;2023-05-10T08:02:40;6.90;;;3.30;;
80247;SDS011;69560;52.206;21.018;2023-05-10T08:05:07;4.80;;;2.50;;
80247;SDS011;69560;52.206;21.018;2023-05-10T08:07:34;5.90;;;3.00;;
80247;SDS011;69560;52.206;21.018;2023-05-10T08:10:01;3.60;;;2.40;;
80247;SDS011;69560;52.206;21.018;2023-05-10T08:12:28;4.90;;;3.10;;
80247;SDS011;69560;52.206;21.018;2023-05-10T08:14:54;7.00;;;2.90;;
80247;SDS011;69560;52.206;21.018;2023-05-10T08:17:21;3.10;;;2.30;;
80247;SDS011;69560;52.206;21.018;2023-05-10T08:19:47;4.90;;;2.60;;
80247;SDS011;69560;52.206;21.018;2023-05-10T08:22:14;4.40;;;2.40;;
80247;SDS011;69560;52.206;21.018;2023-05-10T08:24:41;5.80;;;2.60;;
80247;SDS011;69560;52.206;21.018;2023-05-10T08:27:08;4.20;;;2.70;;
80247;SDS011;69560;52.206;21.018;2023-05-10T08:29:35;6.70;;;2.80;;
80247;SDS011;69560;52.206;21.018;2023-05-10T08:32:01;6.50;;;2.50;;
80247;SDS011;69560;52.206;21.018;2023-05-10T08:34:28;3.30;;;2.30;;
80247;SDS011;69560;52.206;21.018;2023-05-10T08:36:54;4.80;;;2.70;;
80247;SDS011;69560;52.206;21.018;2023-05-10T08:39:21;6.50;;;2.60;;
80247;SDS011;69560;52.206;21.018;2023-05-10T08:41:48;5.80;;;2.30;;
80247;SDS011;69560;52.206;21.018;2023-05-10T08:44:17;4.50;;;2.90;;
80247;SDS011;69560;52.206;21.018;2023-05-10T08:46:45;6.80;;;2.60;;
80247;SDS011;69560;52.206;21.018;2023-05-10T08:49:13;4.30;;;2.60;;
80247;SDS011;69560;52.206;21.018;2023-05-10T08:51:47;5.30;;;2.50;;
80247;SDS011;69560;52.206;21.018;2023-05-10T08:54:18;5.60;;;2.40;;
80247;SDS011;69560;52.206;21.018;2023-05-10T08:56:45;7.70;;;2.90;;
80247;SDS011;69560;52.206;21.018;2023-05-10T08:59:11;5.90;;;2.70;;
80247;SDS011;69560;52.206;21.018;2023-05-10T09:01:40;5.50;;;2.60;;
80247;SDS011;69560;52.206;21.018;2023-05-10T09:04:08;3.40;;;2.20;;
80247;SDS011;69560;52.206;21.018;2023-05-10T09:06:35;4.80;;;2.50;;
80247;SDS011;69560;52.206;21.018;2023-05-10T09:09:02;3.80;;;2.60;;
80247;SDS011;69560;52.206;21.018;2023-05-10T09:11:30;7.90;;;2.80;;
80247;SDS011;69560;52.206;21.018;2023-05-10T09:13:57;3.90;;;2.90;;
80247;SDS011;69560;52.206;21.018;2023-05-10T09:16:24;3.70;;;2.70;;
80247;SDS011;69560;52.206;21.018;2023-05-10T09:18:50;4.40;;;3.00;;
80247;SDS011;69560;52.206;21.018;2023-05-10T09:21:18;9.90;;;3.40;;
80247;SDS011;69560;52.206;21.018;2023-05-10T09:23:47;3.30;;;2.60;;
80247;SDS011;69560;52.206;21.018;2023-05-10T09:26:16;4.50;;;2.50;;
80247;SDS011;69560;52.206;21.018;2023-05-10T09:28:52;9.80;;;3.10;;
80247;SDS011;69560;52.206;21.018;2023-05-10T09:33:51;6.40;;;2.60;;
80247;SDS011;69560;52.206;21.018;2023-05-10T09:36:18;5.40;;;3.30;;
80247;SDS011;69560;52.206;21.018;2023-05-10T09:38:48;3.80;;;3.00;;
80247;SDS011;69560;52.206;21.018;2023-05-10T09:41:17;5.50;;;2.90;;
80247;SDS011;69560;52.206;21.018;2023-05-10T09:43:44;4.50;;;2.40;;
80247;SDS011;69560;52.206;21.018;2023-05-10T09:46:11;8.60;;;2.60;;
80247;SDS011;69560;52.206;21.018;2023-05-10T09:48:46;2.80;;;2.30;;
80247;SDS011;69560;52.206;21.018;2023-05-10T09:51:20;4.20;;;2.80;;
80247;SDS011;69560;52.206;21.018;2023-05-10T09:53:48;4.10;;;3.00;;
80247;SDS011;69560;52.206;21.018;2023-05-10T09:56:34;8.00;;;3.20;;
80247;SDS011;69560;52.206;21.018;2023-05-10T09:59:02;11.70;;;3.20;;
80247;SDS011;69560;52.206;21.018;2023-05-10T10:01:29;6.70;;;2.80;;
80247;SDS011;69560;52.206;21.018;2023-05-10T10:03:56;4.60;;;3.00;;
80247;SDS011;69560;52.206;21.018;2023-05-10T10:06:24;6.50;;;2.70;;
80247;SDS011;69560;52.206;21.018;2023-05-10T10:08:51;5.20;;;2.70;;
80247;SDS011;69560;52.206;21.018;2023-05-10T10:11:19;3.60;;;2.60;;
80247;SDS011;69560;52.206;21.018;2023-05-10T10:13:46;5.60;;;2.90;;
80247;SDS011;69560;52.206;21.018;2023-05-10T10:16:13;10.10;;;2.80;;
80247;SDS011;69560;52.206;21.018;2023-05-10T10:18:39;11.80;;;5.20;;
80247;SDS011;69560;52.206;21.018;2023-05-10T10:21:08;9.70;;;4.70;;
80247;SDS011;69560;52.206;21.018;2023-05-10T10:23:35;7.50;;;2.90;;
80247;SDS011;69560;52.206;21.018;2023-05-10T10:26:02;6.10;;;2.80;;
80247;SDS011;69560;52.206;21.018;2023-05-10T10:31:11;8.20;;;5.30;;
80247;SDS011;69560;52.206;21.018;2023-05-10T10:33:51;6.00;;;3.10;;
80247;SDS011;69560;52.206;21.018;2023-05-10T10:36:25;7.60;;;3.20;;
80247;SDS011;69560;52.206;21.018;2023-05-10T10:38:58;6.50;;;2.80;;
80247;SDS011;69560;52.206;21.018;2023-05-10T10:41:33;6.00;;;2.80;;
80247;SDS011;69560;52.206;21.018;2023-05-10T10:52:26;4.80;;;3.10;;
80247;SDS011;69560;52.206;21.018;2023-05-10T10:55:15;4.00;;;2.50;;
80247;SDS011;69560;52.206;21.018;2023-05-10T11:02:56;3.10;;;2.30;;
80247;SDS011;69560;52.206;21.018;2023-05-10T11:05:34;5.30;;;2.50;;
80247;SDS011;69560;52.206;21.018;2023-05-10T11:10:38;6.90;;;2.60;;
80247;SDS011;69560;52.206;21.018;2023-05-10T11:13:06;15.50;;;3.10;;
80247;SDS011;69560;52.206;21.018;2023-05-10T11:15:39;5.30;;;2.20;;
80247;SDS011;69560;52.206;21.018;2023-05-10T11:18:16;4.70;;;2.30;;
80247;SDS011;69560;52.206;21.018;2023-05-10T11:20:45;5.70;;;2.80;;
80247;SDS011;69560;52.206;21.018;2023-05-10T11:23:17;8.30;;;3.00;;
80247;SDS011;69560;52.206;21.018;2023-05-10T11:25:45;4.60;;;2.40;;
80247;SDS011;69560;52.206;21.018;2023-05-10T11:28:12;5.00;;;2.60;;
80247;SDS011;69560;52.206;21.018;2023-05-10T11:30:39;3.50;;;2.50;;
80247;SDS011;69560;52.206;21.018;2023-05-10T11:33:07;6.20;;;2.90;;
80247;SDS011;69560;52.206;21.018;2023-05-10T11:35:38;5.70;;;3.10;;
80247;SDS011;69560;52.206;21.018;2023-05-10T11:38:09;6.60;;;2.90;;
80247;SDS011;69560;52.206;21.018;2023-05-10T11:40:37;8.50;;;3.10;;
80247;SDS011;69560;52.206;21.018;2023-05-10T11:43:04;5.80;;;2.90;;
80247;SDS011;69560;52.206;21.018;2023-05-10T11:45:34;4.70;;;2.90;;
80247;SDS011;69560;52.206;21.018;2023-05-10T11:48:02;5.10;;;2.50;;
80247;SDS011;69560;52.206;21.018;2023-05-10T11:50:29;5.80;;;2.80;;
80247;SDS011;69560;52.206;21.018;2023-05-10T11:52:56;6.50;;;3.10;;
80247;SDS011;69560;52.206;21.018;2023-05-10T11:55:23;6.40;;;2.90;;
80247;SDS011;69560;52.206;21.018;2023-05-10T11:57:53;3.70;;;2.50;;
80247;SDS011;69560;52.206;21.018;2023-05-10T12:00:20;4.90;;;2.40;;
80247;SDS011;69560;52.206;21.018;2023-05-10T12:02:48;3.50;;;2.60;;
80247;SDS011;69560;52.206;21.018;2023-05-10T12:05:14;7.90;;;3.00;;
80247;SDS011;69560;52.206;21.018;2023-05-10T12:07:42;7.80;;;2.80;;
80247;SDS011;69560;52.206;21.018;2023-05-10T12:10:09;8.90;;;2.70;;
80247;SDS011;69560;52.206;21.018;2023-05-10T12:12:42;4.30;;;2.80;;
80247;SDS011;69560;52.206;21.018;2023-05-10T12:15:22;7.70;;;2.90;;
80247;SDS011;69560;52.206;21.018;2023-05-10T12:17:50;4.70;;;2.60;;
80247;SDS011;69560;52.206;21.018;2023-05-10T12:20:18;5.30;;;2.80;;
80247;SDS011;69560;52.206;21.018;2023-05-10T12:22:49;8.80;;;2.90;;
80247;SDS011;69560;52.206;21.018;2023-05-10T12:25:16;8.70;;;2.90;;
80247;SDS011;69560;52.206;21.018;2023-05-10T12:27:56;5.60;;;2.50;;
80247;SDS011;69560;52.206;21.018;2023-05-10T12:30:28;4.90;;;2.80;;
80247;SDS011;69560;52.206;21.018;2023-05-10T12:32:59;6.10;;;2.80;;
80247;SDS011;69560;52.206;21.018;2023-05-10T12:35:30;8.60;;;2.70;;
80247;SDS011;69560;52.206;21.018;2023-05-10T12:37:57;5.40;;;2.60;;
80247;SDS011;69560;52.206;21.018;2023-05-10T12:40:24;6.90;;;2.70;;
80247;SDS011;69560;52.206;21.018;2023-05-10T12:42:51;6.30;;;2.20;;
80247;SDS011;69560;52.206;21.018;2023-05-10T12:45:18;5.10;;;2.90;;
80247;SDS011;69560;52.206;21.018;2023-05-10T12:47:45;5.20;;;2.40;;
80247;SDS011;69560;52.206;21.018;2023-05-10T12:50:11;5.70;;;3.10;;
80247;SDS011;69560;52.206;21.018;2023-05-10T12:52:38;6.10;;;3.20;;
80247;SDS011;69560;52.206;21.018;2023-05-10T12:55:05;5.90;;;2.40;;
80247;SDS011;69560;52.206;21.018;2023-05-10T12:57:32;6.70;;;2.40;;
80247;SDS011;69560;52.206;21.018;2023-05-10T12:59:59;6.90;;;2.20;;
80247;SDS011;69560;52.206;21.018;2023-05-10T13:02:26;5.50;;;2.60;;
80247;SDS011;69560;52.206;21.018;2023-05-10T13:04:52;4.50;;;2.90;;
80247;SDS011;69560;52.206;21.018;2023-05-10T13:07:19;3.10;;;2.50;;
80247;SDS011;69560;52.206;21.018;2023-05-10T13:09:46;4.10;;;2.50;;
80247;SDS011;69560;52.206;21.018;2023-05-10T13:12:12;5.30;;;2.60;;
80247;SDS011;69560;52.206;21.018;2023-05-10T13:14:39;5.50;;;2.60;;
80247;SDS011;69560;52.206;21.018;2023-05-10T13:17:06;5.60;;;2.80;;
80247;SDS011;69560;52.206;21.018;2023-05-10T13:19:33;4.60;;;2.50;;
80247;SDS011;69560;52.206;21.018;2023-05-10T13:22:00;5.20;;;3.00;;
80247;SDS011;69560;52.206;21.018;2023-05-10T13:24:27;2.60;;;2.30;;
80247;SDS011;69560;52.206;21.018;2023-05-10T13:26:53;3.60;;;2.80;;
80247;SDS011;69560;52.206;21.018;2023-05-10T13:29:20;4.40;;;2.90;;
80247;SDS011;69560;52.206;21.018;2023-05-10T13:31:48;6.50;;;2.60;;
80247;SDS011;69560;52.206;21.018;2023-05-10T13:34:15;7.50;;;2.60;;
80247;SDS011;69560;52.206;21.018;2023-05-10T13:36:42;2.60;;;2.30;;
80247;SDS011;69560;52.206;21.018;2023-05-10T13:39:08;9.30;;;2.60;;
80247;SDS011;69560;52.206;21.018;2023-05-10T13:41:35;4.50;;;2.40;;
80247;SDS011;69560;52.206;21.018;2023-05-10T13:44:02;5.20;;;2.50;;
80247;SDS011;69560;52.206;21.018;2023-05-10T13:46:29;4.70;;;2.50;;
80247;SDS011;69560;52.206;21.018;2023-05-10T13:48:56;6.50;;;3.10;;
80247;SDS011;69560;52.206;21.018;2023-05-10T13:51:23;3.20;;;2.30;;
80247;SDS011;69560;52.206;21.018;2023-05-10T13:53:50;5.40;;;3.00;;
80247;SDS011;69560;52.206;21.018;2023-05-10T13:56:16;3.90;;;2.10;;
80247;SDS011;69560;52.206;21.018;2023-05-10T13:58:43;7.40;;;2.80;;
80247;SDS011;69560;52.206;21.018;2023-05-10T14:01:09;5.30;;;2.30;;
80247;SDS011;69560;52.206;21.018;2023-05-10T14:03:38;4.30;;;2.40;;
80247;SDS011;69560;52.206;21.018;2023-05-10T14:06:05;6.70;;;2.60;;
80247;SDS011;69560;52.206;21.018;2023-05-10T14:08:35;3.90;;;2.70;;
80247;SDS011;69560;52.206;21.018;2023-05-10T14:11:02;6.10;;;3.00;;
80247;SDS011;69560;52.206;21.018;2023-05-10T14:13:29;9.00;;;2.50;;
80247;SDS011;69560;52.206;21.018;2023-05-10T14:15:55;8.00;;;3.20;;
80247;SDS011;69560;52.206;21.018;2023-05-10T14:18:22;6.60;;;2.90;;
80247;SDS011;69560;52.206;21.018;2023-05-10T14:20:49;4.50;;;2.40;;
80247;SDS011;69560;52.206;21.018;2023-05-10T14:23:16;4.60;;;2.40;;
80247;SDS011;69560;52.206;21.018;2023-05-10T14:25:43;5.70;;;3.00;;
80247;SDS011;69560;52.206;21.018;2023-05-10T14:28:09;4.60;;;2.50;;
80247;SDS011;69560;52.206;21.018;2023-05-10T14:30:39;3.80;;;2.60;;
80247;SDS011;69560;52.206;21.018;2023-05-10T14:33:05;3.90;;;2.50;;
80247;SDS011;69560;52.206;21.018;2023-05-10T14:35:32;4.50;;;2.70;;
80247;SDS011;69560;52.206;21.018;2023-05-10T14:37:59;7.10;;;2.70;;
80247;SDS011;69560;52.206;21.018;2023-05-10T14:40:25;4.60;;;2.30;;
80247;SDS011;69560;52.206;21.018;2023-05-10T14:42:55;5.10;;;2.70;;
80247;SDS011;69560;52.206;21.018;2023-05-10T14:45:22;3.90;;;2.30;;
80247;SDS011;69560;52.206;21.018;2023-05-10T14:47:49;3.70;;;2.50;;
80247;SDS011;69560;52.206;21.018;2023-05-10T14:50:16;2.70;;;2.20;;
80247;SDS011;69560;52.206;21.018;2023-05-10T14:52:44;3.70;;;2.20;;
80247;SDS011;69560;52.206;21.018;2023-05-10T14:55:10;4.10;;;2.20;;
80247;SDS011;69560;52.206;21.018;2023-05-10T14:57:37;4.90;;;2.60;;
80247;SDS011;69560;52.206;21.018;2023-05-10T15:00:04;6.40;;;2.90;;
80247;SDS011;69560;52.206;21.018;2023-05-10T15:02:31;5.50;;;2.70;;
80247;SDS011;69560;52.206;21.018;2023-05-10T15:04:58;5.00;;;2.60;;
80247;SDS011;69560;52.206;21.018;2023-05-10T15:07:24;6.90;;;2.70;;
80247;SDS011;69560;52.206;21.018;2023-05-10T15:09:51;6.30;;;2.60;;
80247;SDS011;69560;52.206;21.018;2023-05-10T15:12:18;4.40;;;2.60;;
80247;SDS011;69560;52.206;21.018;2023-05-10T15:14:45;4.80;;;2.50;;